sensor_id;sensor_type;location;lat;lon;timestamp;temperature;humidity
573;DHT22;271;51.114;13.780;2022-10-16T00:00:05;15.80;1.00
573;DHT22;271;51.114;13.780;2022-10-16T00:02:32;15.80;1.00
573;DHT22;271;51.114;13.780;2022-10-16T00:04:59;15.90;1.00
573;DHT22;271;51.114;13.780;2022-10-16T00:07:27;15.90;1.00
573;DHT22;271;51.114;13.780;2022-10-16T00:09:57;15.80;1.00
573;DHT22;271;51.114;13.780;2022-10-16T00:12:26;15.80;1.00
573;DHT22;271;51.114;13.780;2022-10-16T00:14:53;15.80;1.00
573;DHT22;271;51.114;13.780;2022-10-16T00:17:20;15.70;1.00
573;DHT22;271;51.114;13.780;2022-10-16T00:19:48;15.70;1.00
573;DHT22;271;51.114;13.780;2022-10-16T00:22:15;15.60;1.00
573;DHT22;271;51.114;13.780;2022-10-16T00:24:45;15.70;1.00
573;DHT22;271;51.114;13.780;2022-10-16T00:27:12;15.60;1.00
573;DHT22;271;51.114;13.780;2022-10-16T00:29:41;15.60;1.00
573;DHT22;271;51.114;13.780;2022-10-16T00:32:08;15.60;1.00
573;DHT22;271;51.114;13.780;2022-10-16T00:34:35;15.60;1.00
573;DHT22;271;51.114;13.780;2022-10-16T00:37:03;15.60;1.00
573;DHT22;271;51.114;13.780;2022-10-16T00:39:30;15.70;1.00
573;DHT22;271;51.114;13.780;2022-10-16T00:41:57;15.70;1.00
573;DHT22;271;51.114;13.780;2022-10-16T00:44:50;15.70;1.00
573;DHT22;271;51.114;13.780;2022-10-16T00:47:22;15.60;1.00
573;DHT22;271;51.114;13.780;2022-10-16T00:49:55;15.60;1.00
573;DHT22;271;51.114;13.780;2022-10-16T00:52:23;15.50;1.00
573;DHT22;271;51.114;13.780;2022-10-16T00:54:52;15.40;1.00
573;DHT22;271;51.114;13.780;2022-10-16T00:57:20;15.40;1.00
573;DHT22;271;51.114;13.780;2022-10-16T00:59:49;15.40;1.00
573;DHT22;271;51.114;13.780;2022-10-16T01:02:17;15.30;1.00
573;DHT22;271;51.114;13.780;2022-10-16T01:04:47;15.40;1.00
573;DHT22;271;51.114;13.780;2022-10-16T01:07:22;15.50;1.00
573;DHT22;271;51.114;13.780;2022-10-16T01:10:01;15.60;1.00
573;DHT22;271;51.114;13.780;2022-10-16T01:12:40;15.60;1.00
573;DHT22;271;51.114;13.780;2022-10-16T01:15:13;15.60;1.00
573;DHT22;271;51.114;13.780;2022-10-16T01:17:49;15.60;1.00
573;DHT22;271;51.114;13.780;2022-10-16T01:20:26;15.60;1.00
573;DHT22;271;51.114;13.780;2022-10-16T01:23:05;15.50;1.00
573;DHT22;271;51.114;13.780;2022-10-16T01:28:38;15.60;1.00
573;DHT22;271;51.114;13.780;2022-10-16T01:31:06;15.70;1.00
573;DHT22;271;51.114;13.780;2022-10-16T01:33:38;15.60;1.00
573;DHT22;271;51.114;13.780;2022-10-16T01:36:10;15.70;1.00
573;DHT22;271;51.114;13.780;2022-10-16T01:38:39;15.70;1.00
573;DHT22;271;51.114;13.780;2022-10-16T01:41:10;15.80;1.00
573;DHT22;271;51.114;13.780;2022-10-16T01:43:45;15.70;1.00
573;DHT22;271;51.114;13.780;2022-10-16T01:46:14;15.70;1.00
573;DHT22;271;51.114;13.780;2022-10-16T01:48:43;15.70;1.00
573;DHT22;271;51.114;13.780;2022-10-16T01:51:12;15.60;1.00
573;DHT22;271;51.114;13.780;2022-10-16T01:53:42;15.70;1.00
573;DHT22;271;51.114;13.780;2022-10-16T01:56:12;15.70;1.00
573;DHT22;271;51.114;13.780;2022-10-16T01:58:45;15.80;1.00
573;DHT22;271;51.114;13.780;2022-10-16T02:01:15;15.90;1.00
573;DHT22;271;51.114;13.780;2022-10-16T02:03:46;16.00;1.00
573;DHT22;271;51.114;13.780;2022-10-16T02:06:17;16.10;1.00
573;DHT22;271;51.114;13.780;2022-10-16T02:08:44;16.10;1.00
573;DHT22;271;51.114;13.780;2022-10-16T02:11:12;16.10;1.00
573;DHT22;271;51.114;13.780;2022-10-16T02:13:43;16.20;1.00
573;DHT22;271;51.114;13.780;2022-10-16T02:16:13;16.20;1.00
573;DHT22;271;51.114;13.780;2022-10-16T02:18:41;16.20;1.00
573;DHT22;271;51.114;13.780;2022-10-16T02:21:15;16.20;1.00
573;DHT22;271;51.114;13.780;2022-10-16T02:23:50;16.30;1.00
573;DHT22;271;51.114;13.780;2022-10-16T02:26:24;16.30;1.00
573;DHT22;271;51.114;13.780;2022-10-16T02:28:59;16.20;1.00
573;DHT22;271;51.114;13.780;2022-10-16T02:31:28;16.40;1.00
573;DHT22;271;51.114;13.780;2022-10-16T02:34:00;16.30;1.00
573;DHT22;271;51.114;13.780;2022-10-16T02:36:29;16.30;1.00
573;DHT22;271;51.114;13.780;2022-10-16T02:38:57;16.30;1.00
573;DHT22;271;51.114;13.780;2022-10-16T02:41:25;16.20;1.00
573;DHT22;271;51.114;13.780;2022-10-16T02:43:53;16.30;1.00
573;DHT22;271;51.114;13.780;2022-10-16T02:46:22;16.20;1.00
573;DHT22;271;51.114;13.780;2022-10-16T02:48:49;16.30;1.00
573;DHT22;271;51.114;13.780;2022-10-16T02:51:16;16.30;1.00
573;DHT22;271;51.114;13.780;2022-10-16T02:53:43;16.30;1.00
573;DHT22;271;51.114;13.780;2022-10-16T02:56:11;16.20;1.00
573;DHT22;271;51.114;13.780;2022-10-16T02:58:38;16.20;1.00
573;DHT22;271;51.114;13.780;2022-10-16T03:01:05;16.20;1.00
573;DHT22;271;51.114;13.780;2022-10-16T03:03:34;16.10;1.00
573;DHT22;271;51.114;13.780;2022-10-16T03:06:01;16.10;1.00
573;DHT22;271;51.114;13.780;2022-10-16T03:08:28;16.10;1.00
573;DHT22;271;51.114;13.780;2022-10-16T03:10:56;16.00;1.00
573;DHT22;271;51.114;13.780;2022-10-16T03:13:23;15.90;1.00
573;DHT22;271;51.114;13.780;2022-10-16T03:15:50;15.90;1.00
573;DHT22;271;51.114;13.780;2022-10-16T03:18:17;15.90;1.00
573;DHT22;271;51.114;13.780;2022-10-16T03:20:46;15.90;1.00
573;DHT22;271;51.114;13.780;2022-10-16T03:23:13;15.90;1.00
573;DHT22;271;51.114;13.780;2022-10-16T03:25:40;15.90;1.00
573;DHT22;271;51.114;13.780;2022-10-16T03:28:07;15.80;1.00
573;DHT22;271;51.114;13.780;2022-10-16T03:30:35;15.70;1.00
573;DHT22;271;51.114;13.780;2022-10-16T03:33:02;15.70;1.00
573;DHT22;271;51.114;13.780;2022-10-16T03:35:29;15.60;1.00
573;DHT22;271;51.114;13.780;2022-10-16T03:37:58;15.60;1.00
573;DHT22;271;51.114;13.780;2022-10-16T03:40:25;15.60;1.00
573;DHT22;271;51.114;13.780;2022-10-16T03:42:52;15.50;1.00
573;DHT22;271;51.114;13.780;2022-10-16T03:45:21;15.50;1.00
573;DHT22;271;51.114;13.780;2022-10-16T03:47:48;15.60;1.00
573;DHT22;271;51.114;13.780;2022-10-16T03:50:15;15.60;1.00
573;DHT22;271;51.114;13.780;2022-10-16T03:52:43;15.70;1.00
573;DHT22;271;51.114;13.780;2022-10-16T03:55:11;15.70;1.00
573;DHT22;271;51.114;13.780;2022-10-16T03:57:38;15.60;1.00
573;DHT22;271;51.114;13.780;2022-10-16T04:00:07;15.60;1.00
573;DHT22;271;51.114;13.780;2022-10-16T04:02:34;15.60;1.00
573;DHT22;271;51.114;13.780;2022-10-16T04:05:01;15.50;1.00
573;DHT22;271;51.114;13.780;2022-10-16T04:07:28;15.40;1.00
573;DHT22;271;51.114;13.780;2022-10-16T04:09:56;15.30;1.00
573;DHT22;271;51.114;13.780;2022-10-16T04:12:26;15.30;1.00
573;DHT22;271;51.114;13.780;2022-10-16T04:14:53;15.20;1.00
573;DHT22;271;51.114;13.780;2022-10-16T04:17:20;15.10;1.00
573;DHT22;271;51.114;13.780;2022-10-16T04:19:47;15.10;1.00
573;DHT22;271;51.114;13.780;2022-10-16T04:22:15;15.10;1.00
573;DHT22;271;51.114;13.780;2022-10-16T04:24:42;15.00;1.00
573;DHT22;271;51.114;13.780;2022-10-16T04:27:09;15.00;1.00
573;DHT22;271;51.114;13.780;2022-10-16T04:29:38;15.00;1.00
573;DHT22;271;51.114;13.780;2022-10-16T04:32:06;15.10;1.00
573;DHT22;271;51.114;13.780;2022-10-16T04:34:34;15.00;1.00
573;DHT22;271;51.114;13.780;2022-10-16T04:37:03;15.10;1.00
573;DHT22;271;51.114;13.780;2022-10-16T04:39:31;15.10;1.00
573;DHT22;271;51.114;13.780;2022-10-16T04:41:58;15.10;1.00
573;DHT22;271;51.114;13.780;2022-10-16T04:44:25;15.10;1.00
573;DHT22;271;51.114;13.780;2022-10-16T04:46:54;15.20;1.00
573;DHT22;271;51.114;13.780;2022-10-16T04:49:21;15.10;1.00
573;DHT22;271;51.114;13.780;2022-10-16T04:51:48;15.10;1.60
573;DHT22;271;51.114;13.780;2022-10-16T04:54:15;15.10;1.00
573;DHT22;271;51.114;13.780;2022-10-16T04:56:42;15.10;1.30
573;DHT22;271;51.114;13.780;2022-10-16T04:59:13;15.00;1.00
573;DHT22;271;51.114;13.780;2022-10-16T05:01:40;15.00;2.80
573;DHT22;271;51.114;13.780;2022-10-16T05:04:09;14.90;2.80
573;DHT22;271;51.114;13.780;2022-10-16T05:06:37;15.10;3.10
573;DHT22;271;51.114;13.780;2022-10-16T05:09:05;15.00;3.00
573;DHT22;271;51.114;13.780;2022-10-16T05:11:33;15.00;2.40
573;DHT22;271;51.114;13.780;2022-10-16T05:14:00;15.00;3.60
573;DHT22;271;51.114;13.780;2022-10-16T05:16:28;15.00;5.70
573;DHT22;271;51.114;13.780;2022-10-16T05:18:56;14.90;4.60
573;DHT22;271;51.114;13.780;2022-10-16T05:21:24;14.90;5.80
573;DHT22;271;51.114;13.780;2022-10-16T05:23:53;14.90;8.70
573;DHT22;271;51.114;13.780;2022-10-16T05:26:21;15.00;8.10
573;DHT22;271;51.114;13.780;2022-10-16T05:28:49;15.00;9.20
573;DHT22;271;51.114;13.780;2022-10-16T05:31:16;15.10;9.70
573;DHT22;271;51.114;13.780;2022-10-16T05:33:44;15.10;6.60
573;DHT22;271;51.114;13.780;2022-10-16T05:36:11;15.10;6.70
573;DHT22;271;51.114;13.780;2022-10-16T05:38:40;15.00;5.90
573;DHT22;271;51.114;13.780;2022-10-16T05:41:07;14.90;5.40
573;DHT22;271;51.114;13.780;2022-10-16T05:43:35;14.90;6.90
573;DHT22;271;51.114;13.780;2022-10-16T05:46:04;14.90;5.90
573;DHT22;271;51.114;13.780;2022-10-16T05:48:32;14.90;5.80
573;DHT22;271;51.114;13.780;2022-10-16T05:51:00;14.90;5.70
573;DHT22;271;51.114;13.780;2022-10-16T05:53:29;14.90;7.70
573;DHT22;271;51.114;13.780;2022-10-16T05:55:58;14.80;7.50
573;DHT22;271;51.114;13.780;2022-10-16T05:58:29;14.80;8.60
573;DHT22;271;51.114;13.780;2022-10-16T06:00:58;14.80;9.30
573;DHT22;271;51.114;13.780;2022-10-16T06:03:25;14.80;8.60
573;DHT22;271;51.114;13.780;2022-10-16T06:05:53;14.80;9.20
573;DHT22;271;51.114;13.780;2022-10-16T06:08:21;14.90;12.50
573;DHT22;271;51.114;13.780;2022-10-16T06:11:00;14.90;9.80
573;DHT22;271;51.114;13.780;2022-10-16T06:13:28;14.90;11.60
573;DHT22;271;51.114;13.780;2022-10-16T06:15:57;15.00;10.30
573;DHT22;271;51.114;13.780;2022-10-16T06:18:25;14.90;9.70
573;DHT22;271;51.114;13.780;2022-10-16T06:20:53;14.90;8.80
573;DHT22;271;51.114;13.780;2022-10-16T06:23:20;14.90;8.90
573;DHT22;271;51.114;13.780;2022-10-16T06:25:47;14.90;8.30
573;DHT22;271;51.114;13.780;2022-10-16T06:28:16;14.90;8.40
573;DHT22;271;51.114;13.780;2022-10-16T06:30:43;14.90;8.60
573;DHT22;271;51.114;13.780;2022-10-16T06:33:11;15.00;11.70
573;DHT22;271;51.114;13.780;2022-10-16T06:35:39;15.00;11.00
573;DHT22;271;51.114;13.780;2022-10-16T06:38:06;15.00;12.70
573;DHT22;271;51.114;13.780;2022-10-16T06:40:33;15.10;12.50
573;DHT22;271;51.114;13.780;2022-10-16T06:43:00;15.10;11.10
573;DHT22;271;51.114;13.780;2022-10-16T06:45:29;15.10;11.20
573;DHT22;271;51.114;13.780;2022-10-16T06:47:56;15.20;12.80
573;DHT22;271;51.114;13.780;2022-10-16T06:50:23;15.40;13.10
573;DHT22;271;51.114;13.780;2022-10-16T06:52:50;15.30;11.30
573;DHT22;271;51.114;13.780;2022-10-16T06:55:18;15.50;10.50
573;DHT22;271;51.114;13.780;2022-10-16T06:57:47;15.70;3.90
573;DHT22;271;51.114;13.780;2022-10-16T07:00:14;15.90;1.00
573;DHT22;271;51.114;13.780;2022-10-16T07:02:43;16.10;1.00
573;DHT22;271;51.114;13.780;2022-10-16T07:05:10;16.20;1.00
573;DHT22;271;51.114;13.780;2022-10-16T07:07:37;16.40;1.00
573;DHT22;271;51.114;13.780;2022-10-16T07:10:05;16.50;1.00
573;DHT22;271;51.114;13.780;2022-10-16T07:12:32;16.50;1.00
573;DHT22;271;51.114;13.780;2022-10-16T07:14:59;16.60;1.00
573;DHT22;271;51.114;13.780;2022-10-16T07:17:27;16.60;1.00
573;DHT22;271;51.114;13.780;2022-10-16T07:19:55;16.60;1.00
573;DHT22;271;51.114;13.780;2022-10-16T07:22:22;16.70;1.00
573;DHT22;271;51.114;13.780;2022-10-16T07:24:49;16.70;1.00
573;DHT22;271;51.114;13.780;2022-10-16T07:27:17;16.80;1.00
573;DHT22;271;51.114;13.780;2022-10-16T07:29:44;16.90;1.00
573;DHT22;271;51.114;13.780;2022-10-16T07:32:12;16.90;1.00
573;DHT22;271;51.114;13.780;2022-10-16T07:34:39;16.90;1.00
573;DHT22;271;51.114;13.780;2022-10-16T07:37:07;17.00;1.00
573;DHT22;271;51.114;13.780;2022-10-16T07:39:35;17.00;1.00
573;DHT22;271;51.114;13.780;2022-10-16T07:42:02;17.00;1.00
573;DHT22;271;51.114;13.780;2022-10-16T07:44:29;17.00;1.00
573;DHT22;271;51.114;13.780;2022-10-16T07:46:56;17.00;1.00
573;DHT22;271;51.114;13.780;2022-10-16T07:49:24;17.00;1.00
573;DHT22;271;51.114;13.780;2022-10-16T07:51:51;17.00;1.00
573;DHT22;271;51.114;13.780;2022-10-16T07:54:20;17.00;1.00
573;DHT22;271;51.114;13.780;2022-10-16T07:56:47;17.10;1.00
573;DHT22;271;51.114;13.780;2022-10-16T07:59:14;17.10;1.00
573;DHT22;271;51.114;13.780;2022-10-16T08:01:41;17.20;1.00
573;DHT22;271;51.114;13.780;2022-10-16T08:04:09;17.20;1.00
573;DHT22;271;51.114;13.780;2022-10-16T08:06:38;17.20;1.00
573;DHT22;271;51.114;13.780;2022-10-16T08:09:05;17.20;1.00
573;DHT22;271;51.114;13.780;2022-10-16T08:11:35;17.20;1.00
573;DHT22;271;51.114;13.780;2022-10-16T08:14:02;17.30;1.00
573;DHT22;271;51.114;13.780;2022-10-16T08:16:29;17.40;1.00
573;DHT22;271;51.114;13.780;2022-10-16T08:18:56;17.50;1.00
573;DHT22;271;51.114;13.780;2022-10-16T08:21:24;17.60;1.00
573;DHT22;271;51.114;13.780;2022-10-16T08:23:52;17.60;1.00
573;DHT22;271;51.114;13.780;2022-10-16T08:26:20;17.70;1.00
573;DHT22;271;51.114;13.780;2022-10-16T08:28:51;17.70;1.00
573;DHT22;271;51.114;13.780;2022-10-16T08:31:18;17.80;1.00
573;DHT22;271;51.114;13.780;2022-10-16T08:33:45;17.80;1.00
573;DHT22;271;51.114;13.780;2022-10-16T08:36:15;17.90;1.00
573;DHT22;271;51.114;13.780;2022-10-16T08:38:43;17.90;1.00
573;DHT22;271;51.114;13.780;2022-10-16T08:41:21;18.00;1.00
573;DHT22;271;51.114;13.780;2022-10-16T08:44:15;18.10;1.00
573;DHT22;271;51.114;13.780;2022-10-16T08:46:51;18.30;1.00
573;DHT22;271;51.114;13.780;2022-10-16T08:49:21;18.40;1.00
573;DHT22;271;51.114;13.780;2022-10-16T08:51:50;18.40;1.00
573;DHT22;271;51.114;13.780;2022-10-16T08:54:26;18.50;1.00
573;DHT22;271;51.114;13.780;2022-10-16T08:56:55;18.70;1.00
573;DHT22;271;51.114;13.780;2022-10-16T08:59:24;19.00;1.00
573;DHT22;271;51.114;13.780;2022-10-16T09:01:52;19.40;1.00
573;DHT22;271;51.114;13.780;2022-10-16T09:04:46;19.90;1.00
573;DHT22;271;51.114;13.780;2022-10-16T09:07:22;20.50;1.00
573;DHT22;271;51.114;13.780;2022-10-16T09:10:04;21.20;1.00
573;DHT22;271;51.114;13.780;2022-10-16T09:12:38;21.90;1.00
573;DHT22;271;51.114;13.780;2022-10-16T09:15:23;22.30;1.00
573;DHT22;271;51.114;13.780;2022-10-16T09:17:57;22.50;1.00
573;DHT22;271;51.114;13.780;2022-10-16T09:20:30;22.30;1.00
573;DHT22;271;51.114;13.780;2022-10-16T09:23:15;22.20;1.00
573;DHT22;271;51.114;13.780;2022-10-16T09:25:45;22.40;1.00
573;DHT22;271;51.114;13.780;2022-10-16T09:28:13;23.00;1.00
573;DHT22;271;51.114;13.780;2022-10-16T09:30:43;23.60;1.00
573;DHT22;271;51.114;13.780;2022-10-16T09:33:12;24.10;1.00
573;DHT22;271;51.114;13.780;2022-10-16T09:35:42;24.20;1.00
573;DHT22;271;51.114;13.780;2022-10-16T09:38:21;23.80;1.00
573;DHT22;271;51.114;13.780;2022-10-16T09:40:49;23.60;1.00
573;DHT22;271;51.114;13.780;2022-10-16T09:43:21;22.80;1.00
573;DHT22;271;51.114;13.780;2022-10-16T09:45:59;22.50;1.00
573;DHT22;271;51.114;13.780;2022-10-16T09:48:30;22.60;1.00
573;DHT22;271;51.114;13.780;2022-10-16T09:50:59;22.60;1.00
573;DHT22;271;51.114;13.780;2022-10-16T09:53:41;22.50;1.00
573;DHT22;271;51.114;13.780;2022-10-16T09:56:10;21.70;1.00
573;DHT22;271;51.114;13.780;2022-10-16T09:58:42;21.60;1.00
573;DHT22;271;51.114;13.780;2022-10-16T10:01:14;21.70;1.00
573;DHT22;271;51.114;13.780;2022-10-16T10:03:43;21.90;1.00
573;DHT22;271;51.114;13.780;2022-10-16T10:06:21;22.50;1.00
573;DHT22;271;51.114;13.780;2022-10-16T10:09:16;22.80;1.00
573;DHT22;271;51.114;13.780;2022-10-16T10:11:53;22.90;1.00
573;DHT22;271;51.114;13.780;2022-10-16T10:14:24;22.80;1.00
573;DHT22;271;51.114;13.780;2022-10-16T10:17:07;22.70;1.00
573;DHT22;271;51.114;13.780;2022-10-16T10:19:43;22.60;1.00
573;DHT22;271;51.114;13.780;2022-10-16T10:22:29;22.80;1.00
573;DHT22;271;51.114;13.780;2022-10-16T10:25:12;22.80;1.00
573;DHT22;271;51.114;13.780;2022-10-16T10:27:49;22.80;1.00
573;DHT22;271;51.114;13.780;2022-10-16T10:30:20;22.80;1.00
573;DHT22;271;51.114;13.780;2022-10-16T10:32:58;22.80;1.00
573;DHT22;271;51.114;13.780;2022-10-16T10:35:44;22.80;1.00
573;DHT22;271;51.114;13.780;2022-10-16T10:38:26;22.70;1.00
573;DHT22;271;51.114;13.780;2022-10-16T10:41:02;22.70;1.00
573;DHT22;271;51.114;13.780;2022-10-16T10:43:46;22.60;1.00
573;DHT22;271;51.114;13.780;2022-10-16T10:46:23;22.60;1.00
573;DHT22;271;51.114;13.780;2022-10-16T10:51:58;22.10;1.00
573;DHT22;271;51.114;13.780;2022-10-16T10:54:32;21.90;1.00
573;DHT22;271;51.114;13.780;2022-10-16T10:57:06;21.80;1.00
573;DHT22;271;51.114;13.780;2022-10-16T10:59:46;21.80;1.00
573;DHT22;271;51.114;13.780;2022-10-16T11:02:21;21.80;1.00
573;DHT22;271;51.114;13.780;2022-10-16T11:07:48;21.80;1.00
573;DHT22;271;51.114;13.780;2022-10-16T11:10:21;21.70;1.00
573;DHT22;271;51.114;13.780;2022-10-16T11:12:51;21.70;1.00
573;DHT22;271;51.114;13.780;2022-10-16T11:15:23;21.60;1.00
573;DHT22;271;51.114;13.780;2022-10-16T11:17:54;21.60;1.00
573;DHT22;271;51.114;13.780;2022-10-16T11:20:25;21.80;1.00
573;DHT22;271;51.114;13.780;2022-10-16T11:22:56;21.80;1.00
573;DHT22;271;51.114;13.780;2022-10-16T11:25:27;21.70;1.00
573;DHT22;271;51.114;13.780;2022-10-16T11:28:00;21.70;1.00
573;DHT22;271;51.114;13.780;2022-10-16T11:30:29;21.50;1.00
573;DHT22;271;51.114;13.780;2022-10-16T11:33:05;21.40;1.00
573;DHT22;271;51.114;13.780;2022-10-16T11:35:44;21.30;1.00
573;DHT22;271;51.114;13.780;2022-10-16T11:38:19;21.30;1.00
573;DHT22;271;51.114;13.780;2022-10-16T11:40:53;21.30;1.00
573;DHT22;271;51.114;13.780;2022-10-16T11:43:27;21.30;1.00
573;DHT22;271;51.114;13.780;2022-10-16T11:45:58;21.30;1.00
573;DHT22;271;51.114;13.780;2022-10-16T11:48:33;21.40;1.00
573;DHT22;271;51.114;13.780;2022-10-16T11:51:09;21.40;1.00
573;DHT22;271;51.114;13.780;2022-10-16T11:53:45;21.50;1.00
573;DHT22;271;51.114;13.780;2022-10-16T11:56:14;21.50;1.00
573;DHT22;271;51.114;13.780;2022-10-16T11:58:52;21.60;1.00
573;DHT22;271;51.114;13.780;2022-10-16T12:01:24;21.70;1.00
573;DHT22;271;51.114;13.780;2022-10-16T12:04:06;21.70;1.00
573;DHT22;271;51.114;13.780;2022-10-16T12:06:42;21.60;1.00
573;DHT22;271;51.114;13.780;2022-10-16T12:09:19;21.60;1.00
573;DHT22;271;51.114;13.780;2022-10-16T12:11:48;21.60;1.00
573;DHT22;271;51.114;13.780;2022-10-16T12:14:21;21.60;1.00
573;DHT22;271;51.114;13.780;2022-10-16T12:16:54;21.60;1.00
573;DHT22;271;51.114;13.780;2022-10-16T12:19:22;21.50;1.00
573;DHT22;271;51.114;13.780;2022-10-16T12:21:54;21.50;1.00
573;DHT22;271;51.114;13.780;2022-10-16T12:24:33;21.50;1.00
573;DHT22;271;51.114;13.780;2022-10-16T12:27:01;21.50;1.00
573;DHT22;271;51.114;13.780;2022-10-16T12:29:34;21.50;1.00
573;DHT22;271;51.114;13.780;2022-10-16T12:32:03;21.50;1.00
573;DHT22;271;51.114;13.780;2022-10-16T12:34:37;21.50;1.00
573;DHT22;271;51.114;13.780;2022-10-16T12:37:13;21.50;1.00
573;DHT22;271;51.114;13.780;2022-10-16T12:39:41;21.40;1.00
573;DHT22;271;51.114;13.780;2022-10-16T12:42:22;21.30;1.00
573;DHT22;271;51.114;13.780;2022-10-16T12:44:50;21.40;1.00
573;DHT22;271;51.114;13.780;2022-10-16T12:47:23;21.50;1.00
573;DHT22;271;51.114;13.780;2022-10-16T12:49:52;21.50;1.00
573;DHT22;271;51.114;13.780;2022-10-16T12:52:29;21.60;1.00
573;DHT22;271;51.114;13.780;2022-10-16T12:55:01;21.60;1.00
573;DHT22;271;51.114;13.780;2022-10-16T12:57:41;21.70;1.00
573;DHT22;271;51.114;13.780;2022-10-16T13:00:20;21.70;1.00
573;DHT22;271;51.114;13.780;2022-10-16T13:06:19;21.60;1.00
573;DHT22;271;51.114;13.780;2022-10-16T13:09:06;21.60;1.00
573;DHT22;271;51.114;13.780;2022-10-16T13:11:54;21.60;1.00
573;DHT22;271;51.114;13.780;2022-10-16T13:14:49;21.50;1.00
573;DHT22;271;51.114;13.780;2022-10-16T13:17:25;21.40;1.00
573;DHT22;271;51.114;13.780;2022-10-16T13:20:06;21.30;1.00
573;DHT22;271;51.114;13.780;2022-10-16T13:22:47;21.30;1.00
573;DHT22;271;51.114;13.780;2022-10-16T13:25:27;21.30;1.00
573;DHT22;271;51.114;13.780;2022-10-16T13:27:59;21.30;1.00
573;DHT22;271;51.114;13.780;2022-10-16T13:30:29;21.20;1.00
573;DHT22;271;51.114;13.780;2022-10-16T13:32:59;21.20;1.00
573;DHT22;271;51.114;13.780;2022-10-16T13:35:29;21.20;1.00
573;DHT22;271;51.114;13.780;2022-10-16T13:38:14;21.20;1.00
573;DHT22;271;51.114;13.780;2022-10-16T13:40:54;21.20;1.00
573;DHT22;271;51.114;13.780;2022-10-16T13:43:24;21.20;1.00
573;DHT22;271;51.114;13.780;2022-10-16T13:45:54;21.20;1.00
573;DHT22;271;51.114;13.780;2022-10-16T13:48:21;21.20;1.00
573;DHT22;271;51.114;13.780;2022-10-16T13:50:59;21.10;1.00
573;DHT22;271;51.114;13.780;2022-10-16T13:53:26;21.00;1.00
573;DHT22;271;51.114;13.780;2022-10-16T13:55:56;21.00;1.00
573;DHT22;271;51.114;13.780;2022-10-16T13:58:23;21.00;1.00
573;DHT22;271;51.114;13.780;2022-10-16T14:00:56;20.90;1.00
573;DHT22;271;51.114;13.780;2022-10-16T14:03:24;21.00;1.00
573;DHT22;271;51.114;13.780;2022-10-16T14:05:54;21.00;1.00
573;DHT22;271;51.114;13.780;2022-10-16T14:08:23;21.00;1.00
573;DHT22;271;51.114;13.780;2022-10-16T14:10:55;21.00;1.00
573;DHT22;271;51.114;13.780;2022-10-16T14:13:31;21.00;1.00
573;DHT22;271;51.114;13.780;2022-10-16T14:16:03;21.00;1.00
573;DHT22;271;51.114;13.780;2022-10-16T14:18:33;21.10;1.00
573;DHT22;271;51.114;13.780;2022-10-16T14:21:04;21.10;1.00
573;DHT22;271;51.114;13.780;2022-10-16T14:23:35;21.10;1.00
573;DHT22;271;51.114;13.780;2022-10-16T14:26:12;21.00;1.00
573;DHT22;271;51.114;13.780;2022-10-16T14:28:40;21.00;1.00
573;DHT22;271;51.114;13.780;2022-10-16T14:31:28;21.00;1.00
573;DHT22;271;51.114;13.780;2022-10-16T14:33:56;20.90;1.00
573;DHT22;271;51.114;13.780;2022-10-16T14:36:25;20.90;1.00
573;DHT22;271;51.114;13.780;2022-10-16T14:38:58;20.80;1.00
573;DHT22;271;51.114;13.780;2022-10-16T14:41:28;20.80;1.00
573;DHT22;271;51.114;13.780;2022-10-16T14:44:00;20.80;1.00
573;DHT22;271;51.114;13.780;2022-10-16T14:46:31;20.80;1.00
573;DHT22;271;51.114;13.780;2022-10-16T14:49:02;20.70;1.00
573;DHT22;271;51.114;13.780;2022-10-16T14:51:30;20.70;1.00
573;DHT22;271;51.114;13.780;2022-10-16T14:53:57;20.60;1.00
573;DHT22;271;51.114;13.780;2022-10-16T14:56:28;20.50;1.00
573;DHT22;271;51.114;13.780;2022-10-16T14:58:56;20.50;1.00
573;DHT22;271;51.114;13.780;2022-10-16T15:01:23;20.40;1.00
573;DHT22;271;51.114;13.780;2022-10-16T15:03:51;20.40;1.00
573;DHT22;271;51.114;13.780;2022-10-16T15:06:21;20.30;1.00
573;DHT22;271;51.114;13.780;2022-10-16T15:08:48;20.20;1.00
573;DHT22;271;51.114;13.780;2022-10-16T15:11:17;20.10;1.00
573;DHT22;271;51.114;13.780;2022-10-16T15:13:46;20.00;1.00
573;DHT22;271;51.114;13.780;2022-10-16T15:16:15;20.00;1.00
573;DHT22;271;51.114;13.780;2022-10-16T15:18:43;19.90;1.00
573;DHT22;271;51.114;13.780;2022-10-16T15:21:20;19.80;1.00
573;DHT22;271;51.114;13.780;2022-10-16T15:23:49;19.70;1.00
573;DHT22;271;51.114;13.780;2022-10-16T15:26:16;19.60;1.00
573;DHT22;271;51.114;13.780;2022-10-16T15:28:43;19.60;1.00
573;DHT22;271;51.114;13.780;2022-10-16T15:31:12;19.50;1.00
573;DHT22;271;51.114;13.780;2022-10-16T15:33:39;19.40;1.00
573;DHT22;271;51.114;13.780;2022-10-16T15:36:07;19.30;1.00
573;DHT22;271;51.114;13.780;2022-10-16T15:38:35;19.30;1.00
573;DHT22;271;51.114;13.780;2022-10-16T15:41:02;19.20;1.00
573;DHT22;271;51.114;13.780;2022-10-16T15:43:29;19.20;1.00
573;DHT22;271;51.114;13.780;2022-10-16T15:46:01;19.10;1.00
573;DHT22;271;51.114;13.780;2022-10-16T15:48:31;19.00;1.00
573;DHT22;271;51.114;13.780;2022-10-16T15:50:59;18.90;1.00
573;DHT22;271;51.114;13.780;2022-10-16T15:53:27;18.80;1.00
573;DHT22;271;51.114;13.780;2022-10-16T15:55:54;18.80;1.00
573;DHT22;271;51.114;13.780;2022-10-16T15:58:21;18.70;1.00
573;DHT22;271;51.114;13.780;2022-10-16T16:00:54;18.60;1.00
573;DHT22;271;51.114;13.780;2022-10-16T16:03:22;18.50;1.00
573;DHT22;271;51.114;13.780;2022-10-16T16:05:51;18.50;1.00
573;DHT22;271;51.114;13.780;2022-10-16T16:08:18;18.40;1.00
573;DHT22;271;51.114;13.780;2022-10-16T16:10:45;18.30;1.00
573;DHT22;271;51.114;13.780;2022-10-16T16:13:13;18.20;1.00
573;DHT22;271;51.114;13.780;2022-10-16T16:15:41;18.20;1.00
573;DHT22;271;51.114;13.780;2022-10-16T16:18:08;18.10;1.00
573;DHT22;271;51.114;13.780;2022-10-16T16:20:35;18.00;1.00
573;DHT22;271;51.114;13.780;2022-10-16T16:23:04;17.90;1.00
573;DHT22;271;51.114;13.780;2022-10-16T16:25:31;17.90;1.00
573;DHT22;271;51.114;13.780;2022-10-16T16:27:59;17.80;1.00
573;DHT22;271;51.114;13.780;2022-10-16T16:30:26;17.70;1.00
573;DHT22;271;51.114;13.780;2022-10-16T16:32:53;17.70;1.00
573;DHT22;271;51.114;13.780;2022-10-16T16:35:20;17.60;1.00
573;DHT22;271;51.114;13.780;2022-10-16T16:37:48;17.60;1.00
573;DHT22;271;51.114;13.780;2022-10-16T16:40:17;17.50;1.00
573;DHT22;271;51.114;13.780;2022-10-16T16:42:46;17.40;1.00
573;DHT22;271;51.114;13.780;2022-10-16T16:45:14;17.30;1.00
573;DHT22;271;51.114;13.780;2022-10-16T16:47:41;17.30;1.20
573;DHT22;271;51.114;13.780;2022-10-16T16:50:09;17.20;1.00
573;DHT22;271;51.114;13.780;2022-10-16T16:52:36;17.20;1.00
573;DHT22;271;51.114;13.780;2022-10-16T16:55:04;17.20;1.00
573;DHT22;271;51.114;13.780;2022-10-16T16:57:32;17.10;1.00
573;DHT22;271;51.114;13.780;2022-10-16T16:59:59;17.10;1.00
573;DHT22;271;51.114;13.780;2022-10-16T17:02:27;17.10;1.00
573;DHT22;271;51.114;13.780;2022-10-16T17:04:54;17.00;1.60
573;DHT22;271;51.114;13.780;2022-10-16T17:07:22;17.00;2.90